createdAt,value
2018-11-27T00:00:07.894Z,978.5
2018-11-27T00:01:09.242Z,978.5
2018-11-27T00:02:10.511Z,978.6
2018-11-27T00:03:11.802Z,978.6
2018-11-27T00:04:13.090Z,978.6
2018-11-27T00:05:14.375Z,978.6
2018-11-27T00:06:15.586Z,978.6
2018-11-27T00:07:17.075Z,978.6
2018-11-27T00:08:18.352Z,978.6
2018-11-27T00:09:19.810Z,978.5
2018-11-27T00:10:21.484Z,978.6
2018-11-27T00:11:22.705Z,978.4
2018-11-27T00:12:25.692Z,978.6
2018-11-27T00:13:26.933Z,978.5
2018-11-27T00:14:28.203Z,978.6
2018-11-27T00:15:29.491Z,978.6
2018-11-27T00:16:30.714Z,978.5
2018-11-27T00:17:31.974Z,978.6
2018-11-27T00:18:33.220Z,978.6
2018-11-27T00:19:34.450Z,978.6
2018-11-27T00:20:35.750Z,978.6
2018-11-27T00:21:44.778Z,978.5
2018-11-27T00:22:46.032Z,978.5
2018-11-27T00:23:47.265Z,978.5
2018-11-27T00:24:48.500Z,978.5
2018-11-27T00:25:49.804Z,978.3
2018-11-27T00:26:51.077Z,978.4
2018-11-27T00:27:52.314Z,978.5
2018-11-27T00:28:53.554Z,978.5
2018-11-27T00:29:54.804Z,978.5
2018-11-27T00:30:56.065Z,978.5
2018-11-27T00:31:57.319Z,978.5
2018-11-27T00:32:58.553Z,978.6
2018-11-27T00:33:59.819Z,978.5
2018-11-27T00:35:01.088Z,978.5
2018-11-27T00:36:02.381Z,978.6
2018-11-27T00:37:03.659Z,978.6
2018-11-27T00:38:04.920Z,978.6
2018-11-27T00:39:06.180Z,978.7
2018-11-27T00:40:07.416Z,978.7
2018-11-27T00:41:08.908Z,978.6
2018-11-27T00:42:10.218Z,978.7
2018-11-27T00:43:11.475Z,978.7
2018-11-27T00:44:12.718Z,978.7
2018-11-27T00:45:13.952Z,978.8
2018-11-27T00:46:24.918Z,978.8
2018-11-27T00:47:28.307Z,978.8
2018-11-27T00:48:30.668Z,978.8
2018-11-27T00:49:31.917Z,978.9
2018-11-27T00:50:33.163Z,978.9
2018-11-27T00:51:34.438Z,978.9
2018-11-27T00:52:35.686Z,978.8
2018-11-27T00:53:36.940Z,978.9
2018-11-27T00:54:38.296Z,978.9
2018-11-27T00:55:39.526Z,978.9
2018-11-27T00:56:40.925Z,978.9
2018-11-27T00:57:42.173Z,979
2018-11-27T00:58:43.399Z,978.9
2018-11-27T00:59:44.635Z,978.9
2018-11-27T01:00:45.876Z,978.7
2018-11-27T01:01:47.135Z,979
2018-11-27T01:02:48.380Z,979
2018-11-27T01:03:52.340Z,978.9
2018-11-27T01:04:53.600Z,979
2018-11-27T01:05:54.849Z,979
2018-11-27T01:06:56.195Z,979
2018-11-27T01:07:57.452Z,979.1
2018-11-27T01:08:58.699Z,978.9
2018-11-27T01:09:59.932Z,979
2018-11-27T01:11:01.243Z,978.8
2018-11-27T01:12:02.546Z,979
2018-11-27T01:13:03.770Z,979.1
2018-11-27T01:14:05.032Z,979.1
2018-11-27T01:15:06.277Z,979.1
2018-11-27T01:16:07.518Z,979.1
2018-11-27T01:17:08.794Z,979.1
2018-11-27T01:18:10.075Z,979.1
2018-11-27T01:19:11.358Z,979.2
2018-11-27T01:20:14.242Z,979.2
2018-11-27T01:21:20.032Z,979.2
2018-11-27T01:22:21.326Z,979.2
2018-11-27T01:23:22.568Z,979.2
2018-11-27T01:24:23.795Z,979.2
2018-11-27T01:25:25.048Z,979.1
2018-11-27T01:26:26.268Z,979.2
2018-11-27T01:27:27.599Z,979.3
2018-11-27T01:28:28.835Z,979.3
2018-11-27T01:29:30.055Z,979.3
2018-11-27T01:30:31.275Z,979.3
2018-11-27T01:31:32.523Z,979.3
2018-11-27T01:32:33.926Z,979.3
2018-11-27T01:33:38.081Z,979.4
2018-11-27T01:34:39.318Z,979.3
2018-11-27T01:35:41.803Z,979.3
2018-11-27T01:36:43.068Z,979.3
2018-11-27T01:37:44.338Z,979.4
2018-11-27T01:38:45.569Z,979.4
2018-11-27T01:39:46.827Z,979.4
2018-11-27T01:40:48.067Z,979.4
2018-11-27T01:41:49.331Z,979.4
2018-11-27T01:42:50.866Z,979.4
2018-11-27T01:43:52.132Z,979.3
2018-11-27T01:44:53.414Z,979.3
2018-11-27T01:45:54.658Z,979.3
2018-11-27T01:46:55.889Z,979.3
2018-11-27T01:47:57.175Z,979.3
2018-11-27T01:48:58.450Z,979.4
2018-11-27T01:49:59.728Z,979.4
2018-11-27T01:51:00.981Z,979.3
2018-11-27T01:52:02.211Z,979.3
2018-11-27T01:53:03.508Z,979.3
2018-11-27T01:54:04.754Z,979.3
2018-11-27T01:55:05.982Z,979.3
2018-11-27T01:56:07.210Z,979.3
2018-11-27T01:57:08.439Z,979.3
2018-11-27T01:58:09.759Z,979.4
2018-11-27T01:59:10.994Z,979.3
2018-11-27T02:00:12.254Z,979.4
2018-11-27T02:01:13.490Z,979.3
2018-11-27T02:02:14.734Z,979.4
2018-11-27T02:03:16.019Z,979.3
2018-11-27T02:04:17.280Z,979.3
2018-11-27T02:05:18.519Z,979.3
2018-11-27T02:06:19.741Z,979.4
2018-11-27T02:07:20.990Z,979.4
2018-11-27T02:08:22.286Z,979.4
2018-11-27T02:09:23.526Z,979.4
2018-11-27T02:10:24.760Z,979.4
2018-11-27T02:11:26.030Z,979.5
2018-11-27T02:12:27.254Z,979.4
2018-11-27T02:13:28.564Z,979.4
2018-11-27T02:14:29.796Z,979.4
2018-11-27T02:15:31.039Z,979.4
2018-11-27T02:16:32.281Z,979.3
2018-11-27T02:17:33.529Z,979.3
2018-11-27T02:18:34.830Z,979.3
2018-11-27T02:19:36.056Z,979.3
2018-11-27T02:20:37.299Z,979.3
2018-11-27T02:21:38.523Z,979.3
2018-11-27T02:22:39.779Z,979.3
2018-11-27T02:23:41.026Z,979.3
2018-11-27T02:24:42.264Z,979.3
2018-11-27T02:25:43.490Z,979.4
2018-11-27T02:26:44.740Z,979.3
2018-11-27T02:27:45.978Z,979.4
2018-11-27T02:28:47.510Z,979.4
2018-11-27T02:29:48.746Z,979.3
2018-11-27T02:30:49.983Z,979.3
2018-11-27T02:31:51.219Z,979.3
2018-11-27T02:32:52.467Z,979.4
2018-11-27T02:33:53.744Z,979.3
2018-11-27T02:34:54.969Z,979.5
2018-11-27T02:35:56.215Z,979.4
2018-11-27T02:36:57.474Z,979.4
2018-11-27T02:37:58.723Z,979.4
2018-11-27T02:39:00.039Z,979.5
2018-11-27T02:40:01.277Z,979.4
2018-11-27T02:41:02.538Z,979.3
2018-11-27T02:42:03.813Z,979.4
2018-11-27T02:43:05.074Z,979.4
2018-11-27T02:44:06.530Z,979.4
2018-11-27T02:45:07.775Z,979.5
2018-11-27T02:46:08.999Z,979.2
2018-11-27T02:47:10.313Z,979.4
2018-11-27T02:48:12.027Z,979.5
2018-11-27T02:49:13.329Z,979.4
2018-11-27T02:50:14.558Z,979.5
2018-11-27T02:51:15.819Z,979.5
2018-11-27T02:52:17.036Z,979.5
2018-11-27T02:53:18.264Z,979.4
2018-11-27T02:54:19.564Z,979.5
2018-11-27T02:55:20.798Z,979.5
2018-11-27T02:56:22.036Z,979.4
2018-11-27T02:57:23.269Z,979.5
2018-11-27T02:58:24.490Z,979.3
2018-11-27T02:59:28.372Z,979.4
2018-11-27T03:00:29.617Z,979.5
2018-11-27T03:01:30.948Z,979.5
2018-11-27T03:02:32.187Z,979.5
2018-11-27T03:03:33.415Z,979.5
2018-11-27T03:04:34.724Z,979.5
2018-11-27T03:05:35.962Z,979.5
2018-11-27T03:06:37.204Z,979.5
2018-11-27T03:07:38.440Z,979.5
2018-11-27T03:08:39.696Z,979.6
2018-11-27T03:09:40.969Z,979.5
2018-11-27T03:10:42.219Z,979.5
2018-11-27T03:11:43.455Z,979.5
2018-11-27T03:12:45.116Z,979.5
2018-11-27T03:13:47.734Z,979.6
2018-11-27T03:14:49.019Z,979.5
2018-11-27T03:15:50.271Z,979.5
2018-11-27T03:16:51.999Z,979.5
2018-11-27T03:17:53.241Z,979.6
2018-11-27T03:18:56.879Z,979.6
2018-11-27T03:19:58.169Z,979.7
2018-11-27T03:20:59.418Z,979.6
2018-11-27T03:22:00.662Z,979.7
2018-11-27T03:23:01.940Z,979.6
2018-11-27T03:24:03.175Z,979.6
2018-11-27T03:25:04.443Z,979.6
2018-11-27T03:26:05.691Z,979.6
2018-11-27T03:27:07.234Z,979.6
2018-11-27T03:28:08.479Z,979.6
2018-11-27T03:29:09.736Z,978.8
2018-11-27T03:30:11.300Z,979.6
2018-11-27T03:31:12.546Z,979.6
2018-11-27T03:32:13.782Z,979.7
2018-11-27T03:33:15.043Z,979.8
2018-11-27T03:34:16.295Z,979.7
2018-11-27T03:35:17.577Z,979.7
2018-11-27T03:36:18.857Z,979.6
2018-11-27T03:37:20.115Z,979.6
2018-11-27T03:38:21.363Z,979.6
2018-11-27T03:39:22.591Z,979.6
2018-11-27T03:40:23.863Z,979.7
2018-11-27T03:41:25.173Z,979.5
2018-11-27T03:42:30.788Z,979.6
2018-11-27T03:43:32.074Z,979.7
2018-11-27T03:44:33.346Z,979.7
2018-11-27T03:45:34.803Z,979.7
2018-11-27T03:46:36.424Z,979.7
2018-11-27T03:47:37.650Z,979.8
2018-11-27T03:48:38.876Z,979.7
2018-11-27T03:49:40.118Z,979.8
2018-11-27T03:50:41.418Z,979.7
2018-11-27T03:51:45.710Z,979.8
2018-11-27T03:52:46.970Z,979.8
2018-11-27T03:53:48.216Z,979.8
2018-11-27T03:54:49.459Z,979.7
2018-11-27T03:55:50.779Z,979.8
2018-11-27T03:56:52.039Z,979.8
2018-11-27T03:57:53.281Z,979.7
2018-11-27T03:58:54.541Z,979.8
2018-11-27T03:59:55.808Z,979.8
2018-11-27T04:00:57.078Z,979.9
2018-11-27T04:01:58.318Z,979.8
2018-11-27T04:02:59.570Z,979.9
2018-11-27T04:04:00.791Z,979.8
2018-11-27T04:05:02.043Z,979.9
2018-11-27T04:06:03.407Z,979.8
2018-11-27T04:07:04.680Z,979.9
2018-11-27T04:08:05.903Z,979.9
2018-11-27T04:09:07.147Z,979.8
2018-11-27T04:10:08.387Z,979.9
2018-11-27T04:11:09.667Z,979.8
2018-11-27T04:12:10.911Z,979.6
2018-11-27T04:13:12.164Z,979.9
2018-11-27T04:14:13.408Z,979.9
2018-11-27T04:15:14.636Z,980
2018-11-27T04:16:19.147Z,979.8
2018-11-27T04:17:20.400Z,979.9
2018-11-27T04:18:21.638Z,979.9
2018-11-27T04:19:22.867Z,979.7
2018-11-27T04:20:24.105Z,979.9
2018-11-27T04:21:25.404Z,979.9
2018-11-27T04:22:26.640Z,980
2018-11-27T04:23:27.891Z,980
2018-11-27T04:24:29.129Z,979.8
2018-11-27T04:25:30.367Z,980
2018-11-27T04:26:31.636Z,980
2018-11-27T04:27:32.895Z,980
2018-11-27T04:28:34.134Z,980
2018-11-27T04:29:35.399Z,980
2018-11-27T04:30:36.655Z,980
2018-11-27T04:31:38.322Z,980.1
2018-11-27T04:32:39.602Z,980
2018-11-27T04:33:40.847Z,980.1
2018-11-27T04:34:42.082Z,980.1
2018-11-27T04:35:43.344Z,980.1
2018-11-27T04:36:44.620Z,980.1
2018-11-27T04:37:46.105Z,980.1
2018-11-27T04:38:47.360Z,980.1
2018-11-27T04:39:48.611Z,980.1
2018-11-27T04:40:49.850Z,979.9
2018-11-27T04:41:51.156Z,980.1
2018-11-27T04:42:52.430Z,980.1
2018-11-27T04:43:53.699Z,980.1
2018-11-27T04:44:54.935Z,980.1
2018-11-27T04:45:56.327Z,980
2018-11-27T04:46:57.602Z,980.2
2018-11-27T04:47:58.954Z,980.1
2018-11-27T04:49:00.216Z,980.1
2018-11-27T04:50:01.586Z,980.1
2018-11-27T04:51:02.850Z,980.1
2018-11-27T04:52:04.139Z,979.9
2018-11-27T04:53:05.390Z,980.1
2018-11-27T04:54:06.645Z,980.1
2018-11-27T04:55:07.872Z,980.2
2018-11-27T04:56:09.166Z,980.1
2018-11-27T04:57:10.489Z,980
2018-11-27T04:58:11.967Z,980.2
2018-11-27T04:59:13.195Z,980.1
2018-11-27T05:00:14.699Z,980.2
2018-11-27T05:01:16.611Z,980.2
2018-11-27T05:02:17.884Z,980.3
2018-11-27T05:03:19.143Z,980.2
2018-11-27T05:04:20.400Z,980.2
2018-11-27T05:05:21.655Z,980.3
2018-11-27T05:06:22.892Z,980.2
2018-11-27T05:07:27.719Z,980.2
2018-11-27T05:08:29.041Z,980.3
2018-11-27T05:09:30.278Z,980.2
2018-11-27T05:10:31.515Z,980.3
2018-11-27T05:11:32.748Z,980.4
2018-11-27T05:12:36.800Z,980.3
2018-11-27T05:13:38.700Z,980.3
2018-11-27T05:14:39.967Z,980.3
2018-11-27T05:15:41.180Z,980.4
2018-11-27T05:16:42.433Z,980.5
2018-11-27T05:17:48.807Z,980.4
2018-11-27T05:18:50.032Z,980.4
2018-11-27T05:19:51.289Z,980.4
2018-11-27T05:20:52.523Z,980.4
2018-11-27T05:21:53.767Z,980.4
2018-11-27T05:22:55.035Z,980.4
2018-11-27T05:23:56.280Z,980.2
2018-11-27T05:24:57.502Z,980.5
2018-11-27T05:25:58.738Z,980.4
2018-11-27T05:27:00.016Z,980.4
2018-11-27T05:28:01.350Z,980.4
2018-11-27T05:29:02.597Z,980.4
2018-11-27T05:30:03.903Z,980.4
2018-11-27T05:31:05.181Z,980.4
2018-11-27T05:32:09.570Z,980.4
2018-11-27T05:33:10.883Z,980.2
2018-11-27T05:34:12.115Z,980.5
2018-11-27T05:35:13.364Z,980.5
2018-11-27T05:36:14.613Z,980.4
2018-11-27T05:37:15.851Z,980.5
2018-11-27T05:38:17.127Z,980.5
2018-11-27T05:39:18.354Z,980.6
2018-11-27T05:40:19.709Z,980.4
2018-11-27T05:41:21.058Z,980.6
2018-11-27T05:42:22.617Z,980.6
2018-11-27T05:43:23.902Z,980.5
2018-11-27T05:44:27.947Z,980.5
2018-11-27T05:45:29.295Z,980.5
2018-11-27T05:46:32.947Z,980.5
2018-11-27T05:47:37.482Z,980.5
2018-11-27T05:48:38.824Z,980.5
2018-11-27T05:49:40.285Z,980.5
2018-11-27T05:50:41.551Z,980.5
2018-11-27T05:51:42.834Z,980.5
2018-11-27T05:52:44.124Z,980.6
2018-11-27T05:53:45.414Z,980.6
2018-11-27T05:54:46.672Z,980.6
2018-11-27T05:55:47.908Z,980.4
2018-11-27T05:56:49.159Z,980.6
2018-11-27T05:57:50.410Z,980.5
2018-11-27T05:58:54.070Z,980.7
2018-11-27T05:59:55.571Z,980.7
2018-11-27T06:00:56.827Z,980.7
2018-11-27T06:02:00.490Z,980.7
2018-11-27T06:03:01.760Z,980.6
2018-11-27T06:04:03.051Z,980.7
2018-11-27T06:05:04.281Z,980.7
2018-11-27T06:06:05.750Z,980.8
2018-11-27T06:07:07.040Z,980.7
2018-11-27T06:08:14.629Z,980.7
2018-11-27T06:09:17.010Z,980.8
2018-11-27T06:10:18.274Z,980.8
2018-11-27T06:11:19.555Z,980.7
2018-11-27T06:12:20.786Z,980.7
2018-11-27T06:13:25.397Z,980.6
2018-11-27T06:14:29.194Z,980.9
2018-11-27T06:15:33.453Z,980.9
2018-11-27T06:16:34.699Z,980.9
2018-11-27T06:17:39.080Z,980.8
2018-11-27T06:18:40.310Z,980.9
2018-11-27T06:19:42.780Z,980.8
2018-11-27T06:20:44.171Z,980.7
2018-11-27T06:21:45.431Z,980.9
2018-11-27T06:22:46.724Z,980.9
2018-11-27T06:23:49.560Z,980.9
2018-11-27T06:24:50.874Z,981
2018-11-27T06:25:55.068Z,980.8
2018-11-27T06:27:01.314Z,981.1
2018-11-27T06:28:02.726Z,981
2018-11-27T06:29:03.991Z,981.1
2018-11-27T06:30:05.299Z,981.1
2018-11-27T06:31:06.567Z,981.1
2018-11-27T06:32:07.787Z,981
2018-11-27T06:33:09.038Z,981
2018-11-27T06:34:10.444Z,981.1
2018-11-27T06:35:11.792Z,981.2
2018-11-27T06:36:13.246Z,981
2018-11-27T06:37:14.502Z,981
2018-11-27T06:38:15.751Z,981.1
2018-11-27T06:39:17.003Z,980.9
2018-11-27T06:40:18.319Z,981.1
2018-11-27T06:41:19.571Z,981.1
2018-11-27T06:42:20.831Z,981.2
2018-11-27T06:43:22.074Z,981.2
2018-11-27T06:44:23.378Z,980.9
2018-11-27T06:45:24.972Z,981.1
2018-11-27T06:46:26.229Z,981.2
2018-11-27T06:47:27.515Z,981
2018-11-27T06:48:28.927Z,981.2
2018-11-27T06:49:32.359Z,981
2018-11-27T06:50:33.863Z,981.1
2018-11-27T06:51:35.136Z,981.2
2018-11-27T06:52:36.424Z,981.2
2018-11-27T06:53:37.698Z,981.3
2018-11-27T06:54:38.989Z,981.1
2018-11-27T06:55:40.300Z,981.3
2018-11-27T06:56:41.575Z,981.3
2018-11-27T06:57:42.841Z,981.3
2018-11-27T06:58:46.549Z,981.3
2018-11-27T06:59:47.876Z,981.2
2018-11-27T07:00:49.139Z,981.4
2018-11-27T07:01:50.424Z,981.3
2018-11-27T07:02:51.696Z,981.2
2018-11-27T07:03:52.964Z,981.3
2018-11-27T07:04:56.336Z,981.3
2018-11-27T07:05:57.662Z,981.6
2018-11-27T07:06:58.973Z,981.6
2018-11-27T07:08:03.054Z,981.6
2018-11-27T07:09:04.319Z,981.5
2018-11-27T07:10:05.579Z,981.6
2018-11-27T07:11:06.847Z,981.6
2018-11-27T07:12:11.142Z,981.5
2018-11-27T07:13:12.402Z,981.4
2018-11-27T07:14:13.658Z,981.5
2018-11-27T07:15:14.917Z,981.5
2018-11-27T07:16:16.191Z,981.5
2018-11-27T07:17:17.469Z,981.5
2018-11-27T07:18:18.769Z,981.5
2018-11-27T07:19:20.021Z,981.5
2018-11-27T07:20:21.336Z,981.4
2018-11-27T07:21:22.687Z,981.7
2018-11-27T07:22:23.959Z,981.6
2018-11-27T07:23:28.113Z,981.6
2018-11-27T07:24:29.393Z,981.7
2018-11-27T07:25:30.701Z,981.5
2018-11-27T07:26:31.980Z,981.7
2018-11-27T07:27:33.247Z,981.7
2018-11-27T07:28:34.550Z,981.7
2018-11-27T07:29:35.839Z,981.5
2018-11-27T07:30:37.271Z,981.7
2018-11-27T07:31:41.580Z,981.6
2018-11-27T07:32:43.029Z,981.6
2018-11-27T07:33:44.303Z,981.6
2018-11-27T07:34:45.602Z,981.8
2018-11-27T07:35:46.904Z,981.8
2018-11-27T07:36:48.267Z,981.8
2018-11-27T07:37:49.586Z,981.7
2018-11-27T07:38:53.123Z,981.7
2018-11-27T07:39:54.411Z,981.7
2018-11-27T07:40:55.696Z,981.8
2018-11-27T07:41:56.977Z,981.7
2018-11-27T07:42:58.253Z,981.8
2018-11-27T07:43:59.581Z,981.8
2018-11-27T07:45:03.088Z,981.8
2018-11-27T07:46:04.412Z,981.6
2018-11-27T07:47:05.722Z,981.7
2018-11-27T07:48:07.058Z,981.8
2018-11-27T07:49:11.003Z,981.8
2018-11-27T07:50:12.255Z,981.6
2018-11-27T07:51:13.580Z,981.8
2018-11-27T07:52:14.904Z,981.7
2018-11-27T07:53:18.284Z,982
2018-11-27T07:54:19.580Z,981.9
2018-11-27T07:55:25.976Z,982.1
2018-11-27T07:56:27.247Z,982.1
2018-11-27T07:57:32.689Z,982.1
2018-11-27T07:58:34.278Z,982.1
2018-11-27T07:59:37.144Z,982.1
2018-11-27T08:00:38.412Z,982.1
2018-11-27T08:01:39.708Z,982.1
2018-11-27T08:02:41.063Z,982.1
2018-11-27T08:03:42.363Z,982.2
2018-11-27T08:04:45.140Z,982.2
2018-11-27T08:05:46.631Z,982.2
2018-11-27T08:06:47.930Z,982.2
2018-11-27T08:07:49.487Z,982.3
2018-11-27T08:08:50.798Z,982.2
2018-11-27T08:11:08.363Z,982.2
2018-11-27T08:12:09.689Z,982.3
2018-11-27T08:13:20.460Z,982.2
2018-11-27T08:14:24.282Z,982.3
2018-11-27T08:15:27.738Z,982.3
2018-11-27T08:16:29.014Z,982.4
2018-11-27T08:17:30.299Z,982.3
2018-11-27T08:18:31.633Z,982.3
2018-11-27T08:19:33.142Z,982.4
2018-11-27T08:20:37.701Z,982.3
2018-11-27T08:21:39.979Z,982.4
2018-11-27T08:22:41.391Z,982.4
2018-11-27T08:23:58.566Z,982.4
2018-11-27T08:24:59.853Z,982.4
2018-11-27T08:26:01.155Z,982.4
2018-11-27T08:27:02.532Z,982.3
2018-11-27T08:28:05.251Z,982.4
2018-11-27T08:29:06.814Z,982.4
2018-11-27T08:30:10.603Z,982.4
2018-11-27T08:31:11.897Z,982.5
2018-11-27T08:32:19.059Z,982.3
2018-11-27T08:33:20.337Z,982.4
2018-11-27T08:34:21.675Z,982.5
2018-11-27T08:35:25.705Z,982.5
2018-11-27T08:36:27.071Z,982.6
2018-11-27T08:37:38.117Z,982.6
2018-11-27T08:38:41.877Z,982.6
2018-11-27T08:39:48.312Z,982.5
2018-11-27T08:40:49.663Z,982.6
2018-11-27T08:41:53.922Z,982.6
2018-11-27T08:42:58.250Z,982.6
2018-11-27T08:43:59.758Z,982.5
2018-11-27T08:45:01.109Z,982.5
2018-11-27T08:46:02.430Z,982.4
2018-11-27T08:47:03.725Z,982.5
2018-11-27T08:48:04.999Z,982.6
2018-11-27T08:49:06.305Z,982.5
2018-11-27T08:50:09.136Z,982.7
2018-11-27T08:51:10.683Z,982.5
2018-11-27T08:52:15.133Z,982.5
2018-11-27T08:53:16.878Z,982.6
2018-11-27T08:54:18.620Z,982.7
2018-11-27T08:55:19.933Z,982.6
2018-11-27T08:56:21.271Z,982.6
2018-11-27T08:57:32.889Z,982.7
2018-11-27T08:58:36.199Z,982.7
2018-11-27T08:59:43.960Z,982.7
2018-11-27T09:00:45.286Z,982.7
2018-11-27T09:01:46.975Z,982.7
2018-11-27T09:02:48.283Z,982.8
2018-11-27T09:05:02.009Z,982.3
2018-11-27T09:06:05.979Z,982.6
2018-11-27T09:07:07.284Z,982.7
2018-11-27T09:08:09.866Z,982.9
2018-11-27T09:09:11.181Z,982.8
2018-11-27T09:10:12.495Z,983
2018-11-27T09:11:13.823Z,982.9
2018-11-27T09:12:16.628Z,982.9
2018-11-27T09:13:18.168Z,983
2018-11-27T09:14:19.480Z,983
2018-11-27T09:15:20.742Z,983
2018-11-27T09:16:22.133Z,982.9
2018-11-27T09:17:23.622Z,982.8
2018-11-27T09:18:24.899Z,983
2018-11-27T09:19:26.167Z,983.1
2018-11-27T09:20:27.476Z,983
2018-11-27T09:21:28.787Z,983
2018-11-27T09:22:36.199Z,983.1
2018-11-27T09:23:37.457Z,983
2018-11-27T09:24:38.823Z,983
2018-11-27T09:25:43.336Z,983
2018-11-27T09:26:44.688Z,983
2018-11-27T09:27:46.209Z,983
2018-11-27T09:28:50.485Z,982.9
2018-11-27T09:29:51.780Z,983
2018-11-27T09:30:54.309Z,983
2018-11-27T09:31:55.648Z,983
2018-11-27T09:32:56.917Z,983
2018-11-27T09:33:58.202Z,982.9
2018-11-27T09:34:59.480Z,983
2018-11-27T09:36:03.399Z,983
2018-11-27T09:37:04.742Z,983
2018-11-27T09:38:06.046Z,983.1
2018-11-27T09:39:09.086Z,983.1
2018-11-27T09:40:10.419Z,983.2
2018-11-27T09:41:11.700Z,983.2
2018-11-27T09:42:13.033Z,983.1
2018-11-27T09:43:18.942Z,983.1
2018-11-27T09:44:22.752Z,983.3
2018-11-27T09:45:24.043Z,983.3
2018-11-27T09:46:25.392Z,983.2
2018-11-27T09:47:30.454Z,983.4
2018-11-27T09:48:31.757Z,983.1
2018-11-27T09:49:33.036Z,983.2
2018-11-27T09:50:36.494Z,983.1
2018-11-27T09:51:37.775Z,983.1
2018-11-27T09:52:39.155Z,983.1
2018-11-27T09:53:49.168Z,983
2018-11-27T09:54:50.451Z,983.2
2018-11-27T09:55:51.715Z,983.2
2018-11-27T09:56:52.990Z,983.2
2018-11-27T09:58:00.037Z,983.2
2018-11-27T09:59:01.312Z,983.1
2018-11-27T10:00:02.609Z,983.1
2018-11-27T10:01:06.419Z,983.2
2018-11-27T10:02:07.716Z,983.2
2018-11-27T10:03:09.034Z,983.2
2018-11-27T10:04:10.298Z,983.2
2018-11-27T10:05:11.582Z,983
2018-11-27T10:06:12.886Z,983.2
2018-11-27T10:07:14.189Z,983.2
2018-11-27T10:08:15.506Z,983.2
2018-11-27T10:09:19.497Z,983.2
2018-11-27T10:10:23.268Z,983.1
2018-11-27T10:11:30.656Z,983
2018-11-27T10:12:31.947Z,983.1
2018-11-27T10:13:35.491Z,983.1
2018-11-27T10:14:38.145Z,983
2018-11-27T10:15:39.430Z,983.2
2018-11-27T10:16:40.709Z,983.2
2018-11-27T10:17:43.127Z,983.1
2018-11-27T10:18:44.479Z,983
2018-11-27T10:19:46.844Z,983.2
2018-11-27T10:20:48.202Z,983.2
2018-11-27T10:21:49.481Z,983
2018-11-27T10:22:50.753Z,983.2
2018-11-27T10:23:52.068Z,983.2
2018-11-27T10:24:53.850Z,983.2
2018-11-27T10:25:55.155Z,983.2
2018-11-27T10:26:58.043Z,983.3
2018-11-27T10:27:59.587Z,983.2
2018-11-27T10:29:02.454Z,983.2
2018-11-27T10:30:06.780Z,983.2
2018-11-27T10:31:08.079Z,983.2
2018-11-27T10:32:09.360Z,983.1
2018-11-27T10:33:19.580Z,983.1
2018-11-27T10:34:22.518Z,983.1
2018-11-27T10:35:24.058Z,983.1
2018-11-27T10:36:25.380Z,983.1
2018-11-27T10:37:26.700Z,983.1
2018-11-27T10:38:27.970Z,983
2018-11-27T10:39:29.544Z,983.1
2018-11-27T10:40:30.849Z,983.2
2018-11-27T10:41:34.106Z,983.2
2018-11-27T10:42:35.621Z,983.2
2018-11-27T10:43:40.780Z,983.3
2018-11-27T10:44:42.161Z,983.1
2018-11-27T10:45:43.430Z,983
2018-11-27T10:46:44.799Z,982.9
2018-11-27T10:48:54.940Z,983.1
2018-11-27T10:49:56.644Z,982.9
2018-11-27T10:50:59.521Z,983.3
2018-11-27T10:52:00.784Z,983.1
2018-11-27T10:53:02.149Z,983.1
2018-11-27T10:54:06.105Z,983.1
2018-11-27T10:55:07.440Z,983
2018-11-27T10:56:10.911Z,983
2018-11-27T10:57:15.226Z,983
2018-11-27T10:58:17.805Z,982.8
2018-11-27T10:59:19.153Z,983
2018-11-27T11:00:20.450Z,983
2018-11-27T11:01:21.742Z,983.1
2018-11-27T11:02:25.511Z,983.1
2018-11-27T11:03:26.805Z,983.1
2018-11-27T11:04:28.296Z,982.9
2018-11-27T11:05:29.665Z,983.1
2018-11-27T11:06:31.320Z,983.1
2018-11-27T11:07:32.762Z,983
2018-11-27T11:08:34.241Z,983.1
2018-11-27T11:09:35.533Z,983.3
2018-11-27T11:10:37.211Z,983.3
2018-11-27T11:11:38.486Z,983.1
2018-11-27T11:12:39.756Z,983.2
2018-11-27T11:13:41.034Z,983.2
2018-11-27T11:14:42.378Z,983.1
2018-11-27T11:15:43.713Z,983.2
2018-11-27T11:16:45.007Z,983.1
2018-11-27T11:17:46.311Z,983.1
2018-11-27T11:18:47.607Z,983.2
2018-11-27T11:19:51.512Z,983.2
2018-11-27T11:21:00.457Z,983.2
2018-11-27T11:22:01.961Z,983.2
2018-11-27T11:23:06.600Z,983.1
2018-11-27T11:24:07.947Z,983.1
2018-11-27T11:25:09.669Z,983.1
2018-11-27T11:26:11.022Z,983.1
2018-11-27T11:27:12.287Z,983.1
2018-11-27T11:28:13.566Z,983.1
2018-11-27T11:29:14.855Z,983
2018-11-27T11:30:19.187Z,983.1
2018-11-27T11:31:23.191Z,983.1
2018-11-27T11:32:24.520Z,983.2
2018-11-27T11:33:26.274Z,983.3
2018-11-27T11:34:28.920Z,983.3
2018-11-27T11:35:33.281Z,983.2
2018-11-27T11:36:34.611Z,983.3
2018-11-27T11:37:35.892Z,983.2
2018-11-27T11:38:40.225Z,983.1
2018-11-27T11:39:41.530Z,983.3
2018-11-27T11:40:47.608Z,983.3
2018-11-27T11:41:51.453Z,983.3
2018-11-27T11:42:52.699Z,983.3
2018-11-27T11:43:56.914Z,983.1
2018-11-27T11:45:00.320Z,983.2
2018-11-27T11:46:02.761Z,983.1
2018-11-27T11:47:14.051Z,983.2
2018-11-27T11:48:16.495Z,983.3
2018-11-27T11:49:17.753Z,983.2
2018-11-27T11:50:19.027Z,983.3
2018-11-27T11:51:20.546Z,983.2
2018-11-27T11:52:24.132Z,983.3
2018-11-27T11:53:25.419Z,983.2
2018-11-27T11:54:27.887Z,983.2
2018-11-27T11:55:32.163Z,983.1
2018-11-27T11:56:33.443Z,983.2
2018-11-27T11:57:36.168Z,983.1
2018-11-27T11:58:37.474Z,982.9
2018-11-27T11:59:38.799Z,983
2018-11-27T12:00:40.097Z,983.1
2018-11-27T12:01:41.480Z,983
2018-11-27T12:02:42.827Z,983
2018-11-27T12:03:44.134Z,982.8
2018-11-27T12:04:55.021Z,983
2018-11-27T12:05:56.316Z,983.1
2018-11-27T12:06:57.618Z,983
2018-11-27T12:07:58.931Z,983
2018-11-27T12:09:00.247Z,982.9
2018-11-27T12:10:02.923Z,982.9
2018-11-27T12:11:07.030Z,983
2018-11-27T12:12:08.664Z,982.9
2018-11-27T12:13:11.005Z,982.9
2018-11-27T12:14:15.821Z,983
2018-11-27T12:15:21.519Z,982.8
2018-11-27T12:16:44.518Z,983
2018-11-27T12:17:45.915Z,983.3
2018-11-27T12:18:48.980Z,983.1
2018-11-27T12:19:50.337Z,983.1
2018-11-27T12:20:51.735Z,983
2018-11-27T12:21:56.095Z,983.1
2018-11-27T12:22:57.454Z,983.1
2018-11-27T12:23:58.872Z,983
2018-11-27T12:25:03.031Z,982.9
2018-11-27T12:26:09.484Z,983
2018-11-27T12:27:15.468Z,983
2018-11-27T12:28:16.939Z,983
2018-11-27T12:29:18.367Z,982.9
2018-11-27T12:30:19.915Z,983
2018-11-27T12:31:21.303Z,983.1
2018-11-27T12:32:28.400Z,983
2018-11-27T12:33:32.084Z,983.1
2018-11-27T12:34:45.853Z,983.3
2018-11-27T12:35:48.465Z,983.1
2018-11-27T12:36:49.808Z,983.2
2018-11-27T12:37:51.152Z,983.2
2018-11-27T12:38:52.528Z,983.2
2018-11-27T12:39:58.511Z,983.3
2018-11-27T12:40:59.770Z,983.3
2018-11-27T12:42:07.945Z,983.3
2018-11-27T12:43:09.257Z,983.3
2018-11-27T12:44:10.592Z,983.3
2018-11-27T12:45:13.924Z,983.4
2018-11-27T12:47:30.925Z,983.3
2018-11-27T12:48:37.582Z,983.4
2018-11-27T12:49:41.505Z,983.4
2018-11-27T12:50:42.815Z,983.4
2018-11-27T12:51:44.803Z,983.3
2018-11-27T12:52:49.235Z,983.4
2018-11-27T12:53:51.756Z,983.3
2018-11-27T12:54:53.078Z,983.3
2018-11-27T12:55:54.421Z,983.3
2018-11-27T12:56:55.645Z,983.3
2018-11-27T12:57:56.957Z,983.3
2018-11-27T12:58:58.280Z,983.3
2018-11-27T13:00:01.035Z,983.2
2018-11-27T13:01:09.441Z,983.2
2018-11-27T13:02:13.540Z,983.2
2018-11-27T13:03:17.093Z,983.2
2018-11-27T13:04:21.262Z,983.3
2018-11-27T13:05:22.540Z,983.2
2018-11-27T13:06:37.559Z,983.2
2018-11-27T13:07:38.832Z,983.2
2018-11-27T13:08:40.152Z,983.2
2018-11-27T13:09:41.411Z,983
2018-11-27T13:10:42.725Z,983.2
2018-11-27T13:11:52.266Z,983.1
2018-11-27T13:12:53.576Z,983.1
2018-11-27T13:13:56.932Z,983.1
2018-11-27T13:14:58.219Z,983
2018-11-27T13:15:59.764Z,982.9
2018-11-27T13:17:04.332Z,983
2018-11-27T13:18:05.621Z,983
2018-11-27T13:19:08.274Z,983
2018-11-27T13:20:09.663Z,982.9
2018-11-27T13:21:11.166Z,983
2018-11-27T13:22:15.791Z,983.1
2018-11-27T13:23:17.091Z,982.9
2018-11-27T13:24:18.375Z,983
2018-11-27T13:25:19.635Z,983
2018-11-27T13:26:20.931Z,983
2018-11-27T13:27:22.247Z,983
2018-11-27T13:28:23.795Z,982.9
2018-11-27T13:29:26.385Z,983.1